Alexandria, IN

5:16 PM EDT on June 22, 2017 (GMT -0400)
Alexandria Fred 2 | | Change Station

Elev 871 ft 40.27 °N, 85.69 °W | Updated 21 seconds ago

Mostly Cloudy
Mostly Cloudy
85.3 °F
Feels Like 89 °F
N
2.0
Wind Variable Wind from SSW

Today
High -- | Low -- °F
--% Chance of Precip.
Yesterday
High -- | Low -- °F
Precip. -- in
Pressure 29.85 in
Visibility 10.0 miles
Clouds Scattered Clouds 7000 ft
Heat Index 89 °F
Dew Point 69 °F
Humidity 59%
Rainfall 0.00 in
Snow Depth Not available.
6:13 AM 9:16 PM
Waning Crescent, 2% visible
METAR KMIE 222053Z 20014G26KT 10SM SCT070 29/19 A2989 RMK AO2 PK WND 19026/2051 SLP108 T02940194 56016
Pressure 29.85 in
Visibility 10.0 miles
Clouds Scattered Clouds 7000 ft
Heat Index 89 °F
Dew Point 69 °F
Humidity 59%
Rainfall 0.00 in
Snow Depth Not available.
6:13 AM 9:16 PM
Waning Crescent, 2% visible
METAR KMIE 222053Z 20014G26KT 10SM SCT070 29/19 A2989 RMK AO2 PK WND 19026/2051 SLP108 T02940194 56016

Get Severe Weather Alerts

Thanks for signing up!

Be on the lookout for a verification email in your inbox.

You'll start receiving the daily forecast at 6 AM.

×

10-Day Weather Forecast

Almanac

Astronomy

Jun. 22, 2017 Rise Set
Actual Time
Civil Twilight
Nautical Twilight
Astronomical Twilight
Moon
Length of Visible Light
Length of Day
Tomorrow will be .
, % of the Moon is Illuminated

Today's Extremes

State Highs State Lows

Community

WunderPhotos

Category 6

Welcome to Category 6. This is the collective home for Weather Underground's featured writeups by Dr. Jeff Masters (right), Bob Henson (left), Chris Burt, and other regular contributors.

Nearby

Air Quality

  Air Quality AQ Index Pollutant
Not available.

Snow Depth

Station Depth Elevation

Earthquake Activity

City Distance Mag. Time & Date
Minimum magnitude displayed is 2.5.

Coastal Water Temperatures

Place Temperature

Stations

Nearby Weather Stations

Station Location Temp. Windchill Dew Point Humidity Wind Precip. Elev Updated Type
                   

Watches & Warnings

There are currently no watches in effect.